EGNX

East Midlands Airport

Nottingham, United Kingdom
METAR EGNX 211520Z 16008KT 9999 FEW035 19/14 Q1017
Observed Flight Rules
Apr-21 @ 15:20 UTC (15 minutes ago) Visual Flight Rules
Wind Visibility Clouds
160° at 8 knots 10,000+ meters
  • Few at 3,500' AGL
Temperatures Readings
Current 19°C / 66°F
Dewpoint 14°C / 57°F
Humidity 73%
Altimeter 30.03" Hg
Pressure 1017 hPa
Elevation 94
METAR EGNX 211520Z 16008KT 9999 FEW035 19/14 Q1017
Observed Flight Rules
Apr-21 @ 15:20 UTC
(15 minutes ago)
VFR
Wind Visibility
160° at 8 knots 10,000+ meters
Clouds
  • Few at 3,500' AGL
Temperature Dewpoint
19°C / 66°F 14°C / 57°F
Humidity Altimeter Pressure
73% 30.03" Hg 1017 hPa